map of AUH home
AUH - Airport
Location
City:  Abu Dhabi, Abu Dhabi, United Arab Emirates
Name:Abu Dhabi International Airport
Old (Alt.):Nadia International Airport
ICAO:OMAA
IATA:AUH

Details
Type:Airport (Aerodrome, Airfield)
Use:Public/Civil, International (customs port of entry)
Latitude:2425'59"N (24.432972)
Longitude:5439'04"E (54.651138)
Datum:WGS 1984
Elevation:88 ft (27 m)
Variation:1.94E (WMM2015 magnetic declination)
0.05 annual change
Runways:1
Longest:13452 × 148 ft (4100 × 45 m), paved

Time
Time Zone:UTC+4
Local Time:

Weather
METAR:OMAA 221400Z 16006KT 9999 SCT040 28/15 Q1015 WS ALL RWY NOSIG
TAF:OMAA 221100Z 2212/2318 18010KT 8000 SCT030 PROB30
TEMPO 2303/2307 VRB15G30KT 3000 BLDU FEW045TCU
BECMG 2308/2310 27012KT

Related Locations
Nearby:
Farthest:GMR: 11836 mi / 19048 km
Mangareva [Totegegie], Gambier Islands, PF

Find:

   beyond  
but within

Other Information
Maps:
NOTAMs:
Links:
Sources:

  
flag of United Arab Emirates
flag of Abu Dhabi
  

Sectional Chart

Flight Planning
at skyvector.com

Satellite Image

Google Maps Satellite view

 

Copyright © 2004-2017 Karl L. Swartz. All rights reserved.
The Great Circle Mapper name and logo are trademarks of the Great Circle Mapper.
All other trademarks mentioned herein belong to their respective owners.
Please see credits for attibutions and further copyright information.

  Follow gcmap on Facebook Follow gcmap on Twitter Follow gcmap on Google+ GCmap on LinkedIn

hCard Microformat

Geo Microformat